Time;durP1;ratioP1;P1;durP2;ratioP2;P2;SDS_P1;SDS_P2;PMS_P1;PMS_P2;Temp;Humidity;BMP_temperature;BMP_pressure;BME280_temperature;BME280_humidity;BME280_pressure;Samples;Min_cycle;Max_cycle;Signal;HPM_P1;HPM_P2
2023/10/24 00:00:02;;;;;;;14.48;1.00;;;29.40;39.70;;;;;;4949923;28;20070;-70
2023/10/24 00:02:30;;;;;;;3.80;0.88;;;29.40;38.10;;;;;;4950636;28;20070;-69
2023/10/24 00:04:59;;;;;;;4.93;1.05;;;29.60;37.60;;;;;;4942644;28;20035;-69
2023/10/24 00:07:26;;;;;;;4.53;1.02;;;29.70;38.50;;;;;;4945329;28;20421;-68
2023/10/24 00:09:54;;;;;;;3.10;0.75;;;29.90;38.20;;;;;;4948059;28;20039;-69
2023/10/24 00:12:21;;;;;;;7.10;1.00;;;30.00;38.80;;;;;;4951089;28;20035;-69
2023/10/24 00:14:48;;;;;;;5.85;0.80;;;29.90;36.50;;;;;;4932692;28;20082;-70
2023/10/24 00:17:16;;;;;;;3.63;0.73;;;30.20;36.20;;;;;;4947187;28;20387;-69
2023/10/24 00:19:43;;;;;;;11.63;1.25;;;30.10;36.80;;;;;;4943513;28;20026;-70
2023/10/24 00:22:10;;;;;;;8.75;0.93;;;30.30;37.90;;;;;;4942810;28;20138;-69
2023/10/24 00:24:38;;;;;;;6.80;1.05;;;30.70;38.10;;;;;;4935369;28;20019;-70
2023/10/24 00:27:05;;;;;;;6.68;1.08;;;30.70;37.20;;;;;;4949560;28;20114;-70
2023/10/24 00:29:32;;;;;;;6.82;1.00;;;30.60;37.60;;;;;;4943730;28;20545;-70
2023/10/24 00:32:00;;;;;;;6.28;0.93;;;30.50;37.90;;;;;;4947531;28;20167;-70
2023/10/24 00:34:27;;;;;;;9.35;0.90;;;30.90;37.30;;;;;;4949843;28;20042;-70
2023/10/24 00:36:54;;;;;;;3.30;0.75;;;30.80;36.20;;;;;;4949740;28;20122;-68
2023/10/24 00:39:22;;;;;;;11.00;0.90;;;30.80;36.10;;;;;;4954191;28;20050;-69
2023/10/24 00:41:49;;;;;;;5.38;0.65;;;30.80;36.30;;;;;;4942317;28;20445;-69
2023/10/24 00:44:16;;;;;;;9.43;1.00;;;31.10;36.70;;;;;;4945872;28;20031;-69
2023/10/24 00:46:44;;;;;;;4.65;0.57;;;31.50;35.70;;;;;;4946981;28;20019;-69
2023/10/24 00:49:11;;;;;;;3.45;1.10;;;31.20;35.60;;;;;;4951566;28;20102;-69
2023/10/24 00:51:39;;;;;;;5.47;0.45;;;31.30;35.20;;;;;;4947106;28;20190;-69
2023/10/24 00:54:08;;;;;;;3.30;0.68;;;31.20;34.50;;;;;;4951100;28;20039;-69
2023/10/24 00:56:36;;;;;;;4.05;0.93;;;31.30;34.10;;;;;;4942982;28;20381;-69
2023/10/24 00:59:04;;;;;;;3.95;0.60;;;31.30;34.40;;;;;;4944003;28;20035;-68
2023/10/24 01:01:32;;;;;;;5.22;0.63;;;31.20;33.80;;;;;;4947015;28;20031;-69
2023/10/24 01:04:01;;;;;;;5.88;0.80;;;31.40;34.00;;;;;;4947034;28;20035;-70
2023/10/24 01:06:28;;;;;;;6.00;0.82;;;31.80;34.00;;;;;;4948048;28;20385;-70
2023/10/24 01:08:55;;;;;;;3.45;0.50;;;32.10;33.30;;;;;;4953403;28;20035;-70
2023/10/24 01:11:24;;;;;;;3.88;0.88;;;32.10;32.80;;;;;;4933619;28;20039;-70
2023/10/24 01:13:51;;;;;;;3.33;0.45;;;32.00;32.60;;;;;;4949153;28;20047;-70
2023/10/24 01:16:20;;;;;;;1.27;0.40;;;32.20;32.80;;;;;;4947472;28;20122;-70
2023/10/24 01:18:48;;;;;;;4.10;0.90;;;32.20;32.40;;;;;;4963859;28;20035;-69
2023/10/24 01:21:15;;;;;;;3.63;0.73;;;32.10;33.10;;;;;;4947410;28;20028;-70
2023/10/24 01:23:43;;;;;;;6.75;0.57;;;32.40;33.20;;;;;;4946552;28;20053;-71
2023/10/24 01:26:13;;;;;;;3.42;0.70;;;33.00;32.70;;;;;;4948702;28;20035;-70
2023/10/24 01:28:40;;;;;;;6.18;0.75;;;32.80;32.20;;;;;;4946876;28;20042;-71
2023/10/24 01:31:08;;;;;;;4.55;0.90;;;32.60;33.00;;;;;;4943883;28;20389;-70
2023/10/24 01:33:35;;;;;;;2.65;0.60;;;32.30;32.20;;;;;;4942423;28;20055;-70
2023/10/24 01:36:02;;;;;;;3.78;0.70;;;32.90;32.10;;;;;;4950336;28;20045;-71
2023/10/24 01:38:30;;;;;;;2.22;0.55;;;32.80;31.50;;;;;;4948251;28;20091;-70
2023/10/24 01:40:57;;;;;;;2.75;0.55;;;32.90;32.10;;;;;;4946970;28;20032;-71
2023/10/24 01:43:25;;;;;;;6.85;0.93;;;33.20;30.70;;;;;;4947639;28;20031;-70
2023/10/24 01:45:53;;;;;;;4.32;0.90;;;33.40;31.10;;;;;;4943062;28;20063;-69
2023/10/24 01:48:20;;;;;;;2.80;0.70;;;33.40;31.40;;;;;;4951282;28;20034;-71
2023/10/24 01:50:48;;;;;;;4.22;0.80;;;33.60;30.70;;;;;;4953652;28;20114;-70
2023/10/24 01:53:15;;;;;;;3.05;0.80;;;33.80;30.60;;;;;;4950504;28;20038;-70
2023/10/24 01:55:43;;;;;;;1.77;0.43;;;33.80;31.00;;;;;;4949943;28;20132;-70
2023/10/24 01:58:10;;;;;;;3.70;0.73;;;34.00;30.90;;;;;;4949888;28;20131;-71
2023/10/24 02:00:37;;;;;;;5.22;0.90;;;33.40;31.20;;;;;;4946672;28;20440;-71
2023/10/24 02:03:05;;;;;;;2.38;0.68;;;33.70;30.70;;;;;;4946334;28;20035;-71
2023/10/24 02:05:32;;;;;;;5.10;0.70;;;33.60;30.60;;;;;;4928936;28;20028;-72
2023/10/24 02:07:59;;;;;;;4.50;0.70;;;33.20;30.90;;;;;;4946581;28;20059;-70
2023/10/24 02:10:27;;;;;;;2.40;0.43;;;33.50;30.60;;;;;;4944929;28;20062;-72
2023/10/24 02:12:55;;;;;;;3.47;0.82;;;33.80;30.00;;;;;;4946504;28;20124;-72
2023/10/24 02:15:22;;;;;;;2.90;0.50;;;34.10;29.70;;;;;;4944608;28;20235;-71
2023/10/24 02:17:50;;;;;;;3.33;0.50;;;34.30;29.80;;;;;;4949191;28;20038;-71
2023/10/24 02:20:17;;;;;;;2.40;0.70;;;34.70;29.10;;;;;;4929583;28;20114;-72
2023/10/24 02:22:51;;;;;;;2.78;0.63;;;34.30;29.70;;;;;;4945063;28;20181;-71
2023/10/24 02:25:18;;;;;;;7.47;0.70;;;34.40;29.70;;;;;;4949656;28;20032;-71
2023/10/24 02:27:45;;;;;;;1.55;0.60;;;34.10;29.40;;;;;;4932021;28;20074;-72
2023/10/24 02:30:13;;;;;;;2.10;0.35;;;34.20;29.40;;;;;;4943680;28;20054;-72
2023/10/24 02:32:40;;;;;;;4.60;0.60;;;34.20;28.90;;;;;;4942137;28;20054;-70
2023/10/24 02:35:08;;;;;;;5.03;0.80;;;34.30;29.00;;;;;;4941626;28;20397;-70
2023/10/24 02:37:35;;;;;;;3.50;0.52;;;34.10;29.10;;;;;;4949891;28;20039;-70
2023/10/24 02:40:03;;;;;;;2.55;0.50;;;34.40;29.30;;;;;;4941933;28;20523;-70
2023/10/24 02:42:30;;;;;;;1.95;0.50;;;34.60;29.10;;;;;;4945703;28;20023;-71
2023/10/24 02:44:57;;;;;;;6.60;0.75;;;34.60;28.50;;;;;;4942485;28;20023;-70
2023/10/24 02:47:26;;;;;;;4.45;0.70;;;34.60;28.50;;;;;;4944523;28;20343;-71
2023/10/24 02:49:54;;;;;;;3.25;0.70;;;34.70;28.80;;;;;;4950477;28;20035;-71
2023/10/24 02:52:22;;;;;;;3.05;0.77;;;34.70;28.30;;;;;;4953301;28;20027;-70
2023/10/24 02:54:50;;;;;;;2.95;0.50;;;34.60;28.70;;;;;;4939905;28;20035;-71
2023/10/24 02:57:19;;;;;;;2.53;0.60;;;34.90;28.70;;;;;;4952087;28;20027;-71
2023/10/24 02:59:46;;;;;;;5.35;1.23;;;35.40;28.70;;;;;;4957977;28;20038;-70
2023/10/24 03:02:14;;;;;;;1.30;0.60;;;35.50;28.70;;;;;;4948755;28;20125;-70
2023/10/24 03:04:41;;;;;;;1.17;0.50;;;35.80;27.20;;;;;;4952651;28;20066;-70
2023/10/24 03:07:08;;;;;;;3.80;0.50;;;35.60;27.10;;;;;;4955511;28;20046;-71
2023/10/24 03:09:36;;;;;;;2.60;0.60;;;35.80;26.50;;;;;;4952839;28;20030;-71
2023/10/24 03:12:09;;;;;;;2.08;0.70;;;35.60;26.70;;;;;;4953610;28;20031;-71
2023/10/24 03:14:37;;;;;;;2.92;0.60;;;35.70;26.80;;;;;;4954155;28;20039;-72
2023/10/24 03:17:04;;;;;;;2.47;0.50;;;35.50;27.10;;;;;;4955431;28;20066;-72
2023/10/24 03:19:34;;;;;;;1.73;0.60;;;35.50;27.20;;;;;;4954704;28;20106;-72
2023/10/24 03:22:01;;;;;;;4.88;1.08;;;35.90;26.70;;;;;;4949335;28;20138;-72
2023/10/24 03:24:29;;;;;;;1.67;0.50;;;35.90;26.70;;;;;;4950902;28;20062;-72
2023/10/24 03:26:57;;;;;;;1.23;0.32;;;36.40;26.50;;;;;;4952940;28;20094;-72
2023/10/24 03:29:24;;;;;;;3.42;0.70;;;36.40;26.70;;;;;;4951867;28;20028;-72
2023/10/24 03:31:51;;;;;;;2.30;0.68;;;36.50;26.90;;;;;;4953342;28;20062;-72
2023/10/24 03:34:19;;;;;;;5.82;1.23;;;36.40;25.90;;;;;;4954520;28;20059;-72
2023/10/24 03:36:46;;;;;;;2.58;0.80;;;36.10;25.80;;;;;;4952486;28;20473;-71
2023/10/24 03:39:13;;;;;;;6.47;0.65;;;36.40;26.20;;;;;;4937407;28;20491;-72
2023/10/24 03:41:41;;;;;;;2.50;0.73;;;36.50;25.40;;;;;;4955149;28;20094;-72
2023/10/24 03:44:08;;;;;;;1.88;0.70;;;36.40;25.40;;;;;;4927967;28;20031;-71
2023/10/24 03:46:35;;;;;;;5.57;0.82;;;36.30;25.70;;;;;;4942668;28;20058;-73
2023/10/24 03:49:03;;;;;;;5.25;0.60;;;36.50;26.00;;;;;;4935572;28;20484;-72
2023/10/24 03:51:30;;;;;;;4.07;0.80;;;36.10;26.20;;;;;;4947479;28;20027;-74
2023/10/24 03:53:57;;;;;;;2.67;1.13;;;36.20;26.20;;;;;;4946822;28;20048;-72
2023/10/24 03:56:26;;;;;;;5.15;1.05;;;36.30;25.80;;;;;;4944216;28;20027;-72
2023/10/24 03:58:54;;;;;;;2.63;0.68;;;36.20;25.80;;;;;;4946028;28;20388;-71
2023/10/24 04:01:21;;;;;;;5.45;0.60;;;36.30;25.60;;;;;;4945612;28;20130;-71
2023/10/24 04:03:48;;;;;;;1.52;0.70;;;36.40;25.60;;;;;;4945071;28;20564;-71
2023/10/24 04:06:16;;;;;;;3.08;0.70;;;36.30;25.40;;;;;;4937943;28;20027;-72
2023/10/24 04:08:44;;;;;;;1.70;0.70;;;36.40;25.40;;;;;;4939419;28;20543;-71
2023/10/24 04:11:18;;;;;;;3.03;0.88;;;36.40;25.60;;;;;;4953048;28;20128;-71
2023/10/24 04:13:46;;;;;;;1.60;0.68;;;36.30;25.40;;;;;;4947069;28;20031;-72
2023/10/24 04:16:14;;;;;;;2.33;0.77;;;36.70;25.20;;;;;;4942203;28;20031;-72
2023/10/24 04:18:42;;;;;;;3.30;0.80;;;36.90;25.60;;;;;;4927017;28;20042;-72
2023/10/24 04:21:09;;;;;;;2.28;0.65;;;37.00;25.00;;;;;;4950981;28;20031;-71
2023/10/24 04:23:36;;;;;;;1.67;0.60;;;36.90;25.10;;;;;;4949735;28;20049;-70
2023/10/24 04:26:05;;;;;;;1.52;0.80;;;36.90;25.00;;;;;;4941193;28;20461;-71
2023/10/24 04:28:33;;;;;;;3.55;0.70;;;36.70;24.80;;;;;;4943092;28;20376;-70
2023/10/24 04:31:00;;;;;;;1.90;0.50;;;36.40;24.70;;;;;;4933114;28;20031;-73
2023/10/24 04:33:27;;;;;;;3.75;0.50;;;36.30;24.80;;;;;;4950645;28;20476;-72
2023/10/24 04:35:55;;;;;;;3.03;0.70;;;36.50;25.30;;;;;;4949293;28;20057;-73
2023/10/24 04:38:22;;;;;;;3.22;0.50;;;36.70;25.10;;;;;;4951342;28;20031;-72
2023/10/24 04:40:53;;;;;;;1.88;0.50;;;36.70;24.90;;;;;;4943781;28;20065;-71
2023/10/24 04:43:20;;;;;;;2.28;0.70;;;36.80;24.90;;;;;;4945797;28;20043;-71
2023/10/24 04:45:47;;;;;;;1.80;0.50;;;36.70;25.00;;;;;;4947289;28;20031;-72
2023/10/24 04:48:15;;;;;;;1.73;0.60;;;36.60;25.00;;;;;;4948440;28;20023;-72
2023/10/24 04:50:42;;;;;;;3.35;0.52;;;36.50;25.20;;;;;;4951676;28;20074;-72
2023/10/24 04:53:09;;;;;;;2.80;0.57;;;36.60;24.70;;;;;;4950484;28;20082;-72
2023/10/24 04:55:37;;;;;;;2.53;0.50;;;36.70;24.60;;;;;;4952977;28;20041;-72
2023/10/24 04:58:05;;;;;;;1.48;0.47;;;36.70;25.10;;;;;;4934334;28;20106;-71
2023/10/24 05:00:33;;;;;;;2.45;0.57;;;36.90;26.40;;;;;;4947577;28;20101;-72
2023/10/24 05:03:00;;;;;;;2.80;0.50;;;37.30;26.20;;;;;;4943107;28;20043;-71
2023/10/24 05:05:27;;;;;;;4.45;0.90;;;37.30;24.70;;;;;;4950164;28;20019;-73
2023/10/24 05:07:55;;;;;;;2.55;0.68;;;37.20;25.00;;;;;;4945176;28;20864;-73
2023/10/24 05:10:22;;;;;;;1.73;0.82;;;37.50;24.60;;;;;;4951913;28;20106;-72
2023/10/24 05:12:49;;;;;;;3.83;0.90;;;37.40;24.20;;;;;;4947349;28;20125;-72
2023/10/24 05:15:17;;;;;;;2.55;0.70;;;37.40;24.10;;;;;;4950656;28;20039;-72
2023/10/24 05:17:44;;;;;;;1.00;0.60;;;37.40;24.50;;;;;;4948601;28;20027;-72
2023/10/24 05:20:16;;;;;;;2.78;0.73;;;37.60;25.10;;;;;;4951134;28;20073;-70
2023/10/24 05:22:44;;;;;;;1.27;0.75;;;37.70;25.60;;;;;;4951761;28;20027;-72
2023/10/24 05:25:11;;;;;;;2.53;0.60;;;37.90;25.80;;;;;;4934142;28;20074;-72
2023/10/24 05:27:40;;;;;;;1.15;0.85;;;38.00;26.10;;;;;;4948045;28;20058;-72
2023/10/24 05:30:10;;;;;;;5.38;1.38;;;38.10;25.00;;;;;;4956555;28;20023;-72
2023/10/24 05:32:37;;;;;;;8.57;2.58;;;38.00;27.80;;;;;;4948994;28;20433;-71
2023/10/24 05:35:05;;;;;;;11.13;2.70;;;37.70;33.20;;;;;;4949789;28;20110;-70
2023/10/24 05:37:32;;;;;;;9.90;2.80;;;37.20;34.90;;;;;;4952570;28;20424;-70
2023/10/24 05:40:00;;;;;;;12.35;2.40;;;36.80;34.90;;;;;;4953482;28;20020;-70
2023/10/24 05:42:28;;;;;;;12.30;3.13;;;36.30;36.60;;;;;;4949431;28;20142;-72
2023/10/24 05:44:55;;;;;;;10.30;2.75;;;36.00;36.60;;;;;;4947325;28;20404;-72
2023/10/24 05:47:22;;;;;;;12.95;2.95;;;35.70;36.40;;;;;;4951198;28;20039;-72
2023/10/24 05:49:50;;;;;;;12.10;3.30;;;35.60;37.80;;;;;;4948269;28;20392;-70
2023/10/24 05:52:18;;;;;;;14.90;2.65;;;35.50;38.20;;;;;;4948548;28;20405;-70
2023/10/24 05:54:45;;;;;;;10.90;2.67;;;35.40;38.60;;;;;;4949220;28;20111;-71
2023/10/24 05:57:13;;;;;;;8.43;3.13;;;35.10;40.00;;;;;;4953401;28;20090;-71
2023/10/24 05:59:41;;;;;;;9.48;2.45;;;34.90;40.00;;;;;;4952972;28;20099;-71
2023/10/24 06:02:08;;;;;;;10.93;2.88;;;34.70;39.30;;;;;;4945872;28;20093;-71
2023/10/24 06:04:36;;;;;;;7.05;2.40;;;34.70;39.80;;;;;;4950073;28;20038;-70
2023/10/24 06:07:03;;;;;;;11.10;3.00;;;34.70;40.10;;;;;;4949370;28;20035;-72
2023/10/24 06:09:30;;;;;;;6.95;2.45;;;34.70;40.90;;;;;;4947665;28;20023;-72
2023/10/24 06:11:58;;;;;;;10.02;2.60;;;34.20;41.00;;;;;;4948713;28;20031;-72
2023/10/24 06:14:25;;;;;;;8.13;2.75;;;34.20;42.00;;;;;;4948258;28;20388;-72
2023/10/24 06:16:53;;;;;;;10.88;3.13;;;34.00;42.30;;;;;;4950033;28;20452;-69
2023/10/24 06:19:20;;;;;;;7.97;2.72;;;33.90;42.50;;;;;;4951107;28;20054;-71
2023/10/24 06:21:47;;;;;;;10.45;3.10;;;33.80;43.00;;;;;;4948707;28;20035;-70
2023/10/24 06:24:15;;;;;;;11.52;2.83;;;33.90;43.30;;;;;;4944987;28;20408;-70
2023/10/24 06:26:42;;;;;;;8.55;3.10;;;33.80;43.10;;;;;;4946528;28;20139;-72
2023/10/24 06:29:09;;;;;;;6.18;2.33;;;33.50;43.20;;;;;;4947168;28;20101;-71
2023/10/24 06:31:37;;;;;;;9.68;2.75;;;33.40;44.10;;;;;;4945953;28;20389;-71
2023/10/24 06:34:04;;;;;;;14.15;3.72;;;33.30;44.00;;;;;;4945935;28;20047;-72
2023/10/24 06:36:31;;;;;;;10.65;3.17;;;33.30;44.00;;;;;;4931165;28;20042;-71
2023/10/24 06:38:59;;;;;;;12.13;2.88;;;33.30;44.20;;;;;;4948465;28;20439;-70
2023/10/24 06:41:26;;;;;;;9.43;2.70;;;33.40;43.80;;;;;;4953616;28;20122;-70
2023/10/24 06:43:56;;;;;;;11.35;2.90;;;33.30;44.00;;;;;;4952622;28;20074;-69
2023/10/24 06:46:24;;;;;;;13.15;3.08;;;33.30;44.30;;;;;;4952228;28;20046;-70
2023/10/24 06:48:53;;;;;;;11.05;3.25;;;33.10;44.60;;;;;;4946429;28;20035;-70
2023/10/24 06:51:20;;;;;;;11.43;3.53;;;32.70;45.00;;;;;;4944180;28;20027;-71
2023/10/24 06:53:48;;;;;;;21.20;5.13;;;32.50;45.50;;;;;;4947251;28;20074;-70
2023/10/24 06:56:15;;;;;;;11.05;2.97;;;32.50;45.80;;;;;;4945196;28;20497;-71
2023/10/24 06:58:42;;;;;;;12.35;3.58;;;32.40;46.20;;;;;;4946944;28;20024;-71
2023/10/24 07:01:10;;;;;;;14.98;2.92;;;32.40;46.70;;;;;;4945437;28;20090;-70
2023/10/24 07:03:37;;;;;;;11.43;3.22;;;32.20;47.30;;;;;;4942081;28;20133;-70
2023/10/24 07:06:05;;;;;;;9.93;2.47;;;32.10;47.40;;;;;;4947094;28;20039;-69
2023/10/24 07:08:36;;;;;;;9.00;2.85;;;32.00;47.50;;;;;;4928950;28;20083;-69
2023/10/24 07:11:03;;;;;;;11.68;2.95;;;32.00;47.80;;;;;;4943369;28;20388;-71
2023/10/24 07:13:31;;;;;;;16.73;3.50;;;31.90;48.00;;;;;;4947407;28;20039;-71
2023/10/24 07:15:58;;;;;;;11.23;3.28;;;31.70;48.60;;;;;;4951475;28;20114;-71
2023/10/24 07:18:25;;;;;;;15.18;3.63;;;31.60;49.10;;;;;;4943786;28;20083;-69
2023/10/24 07:20:58;;;;;;;8.70;2.80;;;31.50;49.70;;;;;;4940506;28;20481;-68
2023/10/24 07:23:25;;;;;;;16.48;4.15;;;31.30;49.80;;;;;;4941243;28;20150;-67
2023/10/24 07:25:57;;;;;;;14.10;3.40;;;31.20;50.30;;;;;;4927831;28;20102;-68
2023/10/24 07:28:24;;;;;;;15.65;3.50;;;30.90;50.80;;;;;;4946761;28;20023;-67
2023/10/24 07:30:54;;;;;;;12.93;3.53;;;30.70;51.40;;;;;;4948533;28;20023;-68
2023/10/24 07:33:22;;;;;;;11.93;2.97;;;30.70;51.70;;;;;;4942141;28;20396;-68
2023/10/24 07:35:50;;;;;;;14.27;3.47;;;30.50;52.10;;;;;;4929698;28;20062;-70
2023/10/24 07:38:21;;;;;;;9.20;3.17;;;30.40;52.50;;;;;;4947536;28;20113;-69
2023/10/24 07:40:48;;;;;;;11.93;3.38;;;30.30;52.70;;;;;;4947433;28;20463;-68
2023/10/24 07:43:16;;;;;;;15.18;3.35;;;30.20;53.30;;;;;;4939603;28;20044;-71
2023/10/24 07:45:48;;;;;;;12.45;2.95;;;30.00;53.60;;;;;;4949565;28;20146;-70
2023/10/24 07:48:15;;;;;;;13.90;3.40;;;30.00;54.40;;;;;;4945904;28;20369;-67
2023/10/24 07:50:53;;;;;;;11.95;3.03;;;29.90;54.60;;;;;;4949689;28;20947;-68
2023/10/24 07:53:22;;;;;;;13.35;3.22;;;29.70;55.10;;;;;;4929962;28;20056;-68
2023/10/24 07:55:49;;;;;;;10.88;3.53;;;29.60;55.70;;;;;;4948546;28;20478;-68
2023/10/24 07:58:17;;;;;;;13.43;3.58;;;29.50;56.10;;;;;;4949833;28;20040;-69
2023/10/24 08:00:46;;;;;;;10.55;3.58;;;29.40;56.40;;;;;;4948435;28;20043;-68
2023/10/24 08:03:14;;;;;;;15.05;3.47;;;29.40;56.70;;;;;;4945600;28;20043;-69
2023/10/24 08:05:42;;;;;;;13.43;3.30;;;29.30;57.10;;;;;;4942423;28;20027;-68
2023/10/24 08:08:09;;;;;;;12.73;3.45;;;29.20;57.40;;;;;;4938534;29;20489;-68
2023/10/24 08:10:37;;;;;;;14.95;3.28;;;29.20;57.90;;;;;;4941384;28;20122;-68
2023/10/24 08:13:04;;;;;;;12.48;3.38;;;29.10;58.30;;;;;;4951421;28;20036;-67
2023/10/24 08:15:32;;;;;;;10.02;3.40;;;29.10;58.60;;;;;;4945115;28;20035;-67
2023/10/24 08:18:00;;;;;;;14.68;3.67;;;29.10;58.80;;;;;;4928391;28;20114;-68
2023/10/24 08:20:27;;;;;;;9.85;3.80;;;28.90;59.20;;;;;;4946169;28;20063;-68
2023/10/24 08:22:55;;;;;;;17.50;3.72;;;28.90;59.70;;;;;;4946142;28;20073;-67
2023/10/24 08:25:22;;;;;;;10.82;3.33;;;28.80;59.90;;;;;;4946991;28;20122;-69
2023/10/24 08:27:49;;;;;;;11.27;3.20;;;28.70;60.10;;;;;;4947343;28;20129;-69
2023/10/24 08:30:17;;;;;;;14.48;3.60;;;28.60;60.60;;;;;;4949373;28;20038;-68
2023/10/24 08:32:48;;;;;;;12.98;3.88;;;28.50;61.00;;;;;;4939033;28;20137;-68
2023/10/24 08:35:15;;;;;;;13.75;4.07;;;28.40;61.50;;;;;;4948445;28;20063;-70
2023/10/24 08:37:43;;;;;;;17.50;3.80;;;28.40;61.40;;;;;;4946358;28;20031;-67
2023/10/24 08:40:11;;;;;;;16.13;3.92;;;28.30;61.90;;;;;;4950725;28;20022;-68
2023/10/24 08:42:39;;;;;;;12.23;4.03;;;28.30;62.00;;;;;;4926292;28;20123;-68
2023/10/24 08:45:08;;;;;;;13.10;4.15;;;28.30;62.20;;;;;;4928143;28;20707;-68
2023/10/24 08:47:36;;;;;;;17.48;4.00;;;28.20;62.40;;;;;;4946953;28;20023;-68
2023/10/24 08:50:06;;;;;;;13.90;3.67;;;28.00;62.90;;;;;;4951825;28;20038;-68
2023/10/24 08:52:34;;;;;;;17.27;5.00;;;27.90;63.50;;;;;;4948191;28;20032;-68
2023/10/24 08:55:06;;;;;;;12.93;3.90;;;27.90;63.50;;;;;;4949374;28;20115;-68
2023/10/24 08:57:42;;;;;;;17.40;4.47;;;27.90;64.20;;;;;;4945656;28;20027;-68
2023/10/24 09:00:11;;;;;;;20.90;4.65;;;27.80;64.30;;;;;;4948559;28;20034;-67
2023/10/24 09:02:39;;;;;;;17.58;4.60;;;27.40;65.50;;;;;;4942732;28;20432;-69
2023/10/24 09:05:10;;;;;;;13.75;4.63;;;27.20;66.30;;;;;;4953357;28;20070;-68
2023/10/24 09:07:38;;;;;;;18.42;5.35;;;27.00;67.30;;;;;;4945735;28;20042;-67
2023/10/24 09:10:06;;;;;;;20.00;5.07;;;26.80;68.40;;;;;;4948258;28;20031;-70
2023/10/24 09:12:35;;;;;;;18.80;4.40;;;26.70;68.90;;;;;;4947899;28;20031;-67
2023/10/24 09:15:02;;;;;;;17.83;4.82;;;26.40;69.50;;;;;;4951935;28;20332;-68
2023/10/24 09:17:31;;;;;;;16.15;4.43;;;26.20;70.40;;;;;;4946501;28;20110;-67
2023/10/24 09:19:59;;;;;;;14.13;4.70;;;26.00;70.70;;;;;;4948851;28;20035;-69
2023/10/24 09:22:29;;;;;;;14.00;4.05;;;26.00;71.20;;;;;;4952572;28;20511;-68
2023/10/24 09:24:58;;;;;;;11.93;4.18;;;25.90;70.80;;;;;;4950521;28;20189;-68
2023/10/24 09:27:29;;;;;;;18.25;4.38;;;25.80;71.40;;;;;;4949888;28;20374;-68
2023/10/24 09:29:56;;;;;;;21.77;5.18;;;25.80;71.60;;;;;;4934261;28;20035;-68
2023/10/24 09:32:27;;;;;;;16.65;5.40;;;25.70;72.30;;;;;;4954198;28;20181;-68
2023/10/24 09:34:57;;;;;;;14.85;4.47;;;25.60;73.20;;;;;;4948481;28;20986;-68
2023/10/24 09:37:32;;;;;;;16.08;4.35;;;25.60;73.50;;;;;;4946618;28;20035;-68
2023/10/24 09:40:04;;;;;;;18.10;4.22;;;25.40;75.40;;;;;;4944323;28;20480;-68
2023/10/24 09:42:32;;;;;;;16.58;4.60;;;25.30;75.40;;;;;;4943903;28;21736;-68
2023/10/24 09:45:05;;;;;;;17.13;4.50;;;25.30;76.50;;;;;;4947862;28;20039;-68
2023/10/24 09:47:37;;;;;;;18.15;4.70;;;25.20;77.70;;;;;;4940950;28;20688;-67
2023/10/24 09:50:07;;;;;;;17.25;4.72;;;25.10;77.50;;;;;;4938976;28;20058;-68
2023/10/24 09:52:35;;;;;;;15.20;4.78;;;25.00;78.60;;;;;;4938557;28;20033;-68
2023/10/24 09:55:03;;;;;;;12.57;4.85;;;24.90;79.70;;;;;;4945496;28;20030;-69
2023/10/24 09:57:35;;;;;;;18.50;4.45;;;24.90;80.70;;;;;;4944549;28;20042;-68
2023/10/24 10:00:04;;;;;;;14.60;4.50;;;24.80;81.70;;;;;;4952203;28;20023;-68
2023/10/24 10:02:41;;;;;;;16.08;4.75;;;24.80;80.70;;;;;;4950689;28;20061;-69
2023/10/24 10:05:16;;;;;;;19.48;5.15;;;24.60;81.00;;;;;;4951495;28;20681;-68
2023/10/24 10:07:49;;;;;;;17.13;4.72;;;24.50;82.90;;;;;;4943761;28;20130;-69
2023/10/24 10:10:17;;;;;;;15.82;4.72;;;24.30;82.60;;;;;;4933432;28;20039;-67
2023/10/24 10:12:45;;;;;;;15.15;4.82;;;24.30;82.70;;;;;;4936468;28;20031;-67
2023/10/24 10:15:18;;;;;;;14.02;4.25;;;24.20;84.30;;;;;;4946865;28;20113;-67
2023/10/24 10:18:26;;;;;;;20.52;4.68;;;24.20;84.10;;;;;;4952078;28;20466;-67
2023/10/24 10:21:25;;;;;;;20.05;4.93;;;24.20;85.10;;;;;;4913246;28;20070;-69
2023/10/24 10:24:33;;;;;;;21.00;4.75;;;24.00;84.20;;;;;;4949652;28;20052;-67
2023/10/24 10:27:17;;;;;;;20.93;4.33;;;24.00;85.90;;;;;;4876719;29;20418;-67
2023/10/24 10:30:02;;;;;;;16.63;4.60;;;23.90;84.80;;;;;;4867929;29;20570;-67
2023/10/24 10:32:54;;;;;;;13.02;4.45;;;23.90;85.20;;;;;;4912783;28;20105;-69
2023/10/24 10:35:22;;;;;;;13.20;4.57;;;23.90;85.80;;;;;;4936496;28;20023;-70
2023/10/24 10:38:04;;;;;;;21.77;4.88;;;23.80;86.60;;;;;;4952697;28;20038;-69
2023/10/24 10:40:32;;;;;;;20.38;5.35;;;23.60;87.30;;;;;;4946269;28;20039;-69
2023/10/24 10:42:59;;;;;;;21.73;4.75;;;23.50;87.40;;;;;;4947700;28;20362;-69
2023/10/24 10:45:31;;;;;;;19.92;5.25;;;23.50;88.00;;;;;;4953654;28;20059;-69
2023/10/24 10:48:00;;;;;;;19.55;5.05;;;23.40;89.10;;;;;;4955857;28;20086;-69
2023/10/24 10:50:29;;;;;;;20.20;5.40;;;23.40;89.40;;;;;;4934185;28;20066;-67
2023/10/24 10:53:20;;;;;;;18.77;5.05;;;23.40;90.00;;;;;;4946356;28;20454;-68
2023/10/24 10:56:09;;;;;;;25.50;5.13;;;23.30;90.00;;;;;;4941771;28;20142;-67
2023/10/24 10:59:09;;;;;;;16.77;5.25;;;23.30;90.40;;;;;;4950400;28;20023;-67
2023/10/24 11:02:03;;;;;;;18.83;4.82;;;23.10;90.60;;;;;;4910116;28;20070;-68
2023/10/24 11:04:30;;;;;;;21.38;5.53;;;23.00;91.10;;;;;;4953179;28;20075;-67
2023/10/24 11:07:08;;;;;;;18.30;5.97;;;23.00;91.00;;;;;;4949885;28;20499;-67
2023/10/24 11:09:37;;;;;;;26.80;5.93;;;22.90;91.00;;;;;;4948893;28;20027;-68
2023/10/24 11:12:25;;;;;;;18.35;5.75;;;23.00;91.00;;;;;;4950982;28;20036;-67
2023/10/24 11:15:11;;;;;;;20.25;4.90;;;22.90;91.40;;;;;;4932972;28;20066;-67
2023/10/24 11:17:39;;;;;;;19.35;5.88;;;22.90;91.50;;;;;;4950871;28;20099;-67
2023/10/24 11:20:10;;;;;;;21.73;5.43;;;22.80;91.50;;;;;;4946861;28;20957;-67
2023/10/24 11:22:38;;;;;;;29.85;6.00;;;22.70;91.80;;;;;;4954522;28;20062;-68
2023/10/24 11:25:10;;;;;;;24.60;6.22;;;22.90;91.70;;;;;;4950142;28;20053;-68
2023/10/24 11:27:38;;;;;;;27.48;5.68;;;22.70;91.90;;;;;;4937669;28;20046;-66
2023/10/24 11:30:07;;;;;;;21.30;7.20;;;22.70;92.00;;;;;;4956131;28;20035;-68
2023/10/24 11:32:35;;;;;;;21.15;6.55;;;22.70;91.90;;;;;;4953872;28;20047;-67
2023/10/24 11:35:05;;;;;;;15.98;4.78;;;22.80;92.00;;;;;;4953766;28;20035;-68
2023/10/24 11:37:33;;;;;;;20.88;5.85;;;22.60;91.70;;;;;;4958250;28;20572;-67
2023/10/24 11:40:00;;;;;;;15.02;6.03;;;22.50;92.00;;;;;;4955978;28;20070;-67
2023/10/24 11:42:28;;;;;;;16.58;4.75;;;22.70;91.70;;;;;;4956226;28;20485;-67
2023/10/24 11:44:55;;;;;;;22.98;5.25;;;22.30;91.70;;;;;;4952126;28;20090;-67
2023/10/24 11:47:23;;;;;;;24.60;5.95;;;22.40;92.10;;;;;;4953610;28;20097;-67
2023/10/24 11:49:50;;;;;;;16.38;5.65;;;22.40;91.80;;;;;;4950523;28;20026;-67
2023/10/24 11:52:17;;;;;;;23.77;5.75;;;22.10;92.30;;;;;;4950125;28;20042;-69
2023/10/24 11:54:51;;;;;;;21.75;6.50;;;21.90;92.70;;;;;;4952561;28;20357;-67
2023/10/24 11:57:22;;;;;;;20.65;5.80;;;22.00;93.00;;;;;;4947853;28;20461;-67
2023/10/24 11:59:50;;;;;;;21.02;6.60;;;21.70;93.20;;;;;;4954407;28;20027;-67
2023/10/24 12:02:18;;;;;;;19.90;5.60;;;21.80;93.20;;;;;;4935585;28;20035;-68
2023/10/24 12:04:52;;;;;;;19.35;5.38;;;21.80;93.30;;;;;;4951524;28;21227;-68
2023/10/24 12:07:19;;;;;;;26.60;6.97;;;21.70;93.60;;;;;;4952645;28;20031;-67
2023/10/24 12:09:48;;;;;;;20.85;5.95;;;21.70;93.70;;;;;;4953587;28;20023;-67
2023/10/24 12:12:15;;;;;;;31.00;8.25;;;21.60;94.10;;;;;;4954534;28;20122;-67
2023/10/24 12:14:44;;;;;;;20.02;6.63;;;21.60;94.40;;;;;;4951069;28;20031;-68
2023/10/24 12:17:11;;;;;;;24.95;6.93;;;21.50;94.20;;;;;;4954180;28;20038;-67
2023/10/24 12:19:39;;;;;;;18.85;6.18;;;21.30;94.40;;;;;;4955652;28;20170;-66
2023/10/24 12:22:06;;;;;;;21.02;5.90;;;21.30;94.20;;;;;;4954025;28;20050;-68
2023/10/24 12:24:34;;;;;;;20.35;6.15;;;21.40;94.00;;;;;;4951892;28;20043;-67
2023/10/24 12:27:01;;;;;;;21.27;6.22;;;21.60;93.40;;;;;;4952472;28;20461;-67
2023/10/24 12:29:28;;;;;;;21.30;6.03;;;21.50;93.90;;;;;;4949364;28;20066;-68
2023/10/24 12:31:56;;;;;;;20.15;5.82;;;21.50;94.00;;;;;;4953972;28;20065;-68
2023/10/24 12:34:23;;;;;;;18.85;6.88;;;21.50;93.70;;;;;;4937746;28;20090;-68
2023/10/24 12:36:53;;;;;;;24.05;6.53;;;21.40;93.50;;;;;;4951933;28;20037;-68
2023/10/24 12:39:21;;;;;;;19.70;7.00;;;21.30;94.00;;;;;;4953552;28;20463;-68
2023/10/24 12:41:48;;;;;;;20.30;6.28;;;21.40;93.70;;;;;;4951727;28;20111;-67
2023/10/24 12:44:17;;;;;;;25.05;6.53;;;21.30;94.10;;;;;;4950619;28;20038;-66
2023/10/24 12:46:45;;;;;;;19.10;5.20;;;21.20;94.30;;;;;;4950609;28;20431;-68
2023/10/24 12:49:12;;;;;;;21.10;6.43;;;21.20;93.80;;;;;;4954833;28;20416;-68